sensor_id;sensor_type;location;lat;lon;timestamp;temperature;humidity
46492;DHT22;32206;51.446;6.792;2023-03-01T00:00:28;0.00;36.40
46492;DHT22;32206;51.446;6.792;2023-03-01T00:19:39;-0.20;47.20
46492;DHT22;32206;51.446;6.792;2023-03-01T00:22:05;-0.20;47.60
46492;DHT22;32206;51.446;6.792;2023-03-01T00:24:36;-0.30;49.30
46492;DHT22;32206;51.446;6.792;2023-03-01T00:27:02;-0.30;49.50
46492;DHT22;32206;51.446;6.792;2023-03-01T00:29:28;-0.30;48.90
46492;DHT22;32206;51.446;6.792;2023-03-01T00:42:07;-0.40;51.20
46492;DHT22;32206;51.446;6.792;2023-03-01T00:44:33;-0.40;54.60
46492;DHT22;32206;51.446;6.792;2023-03-01T00:46:59;-0.20;56.20
46492;DHT22;32206;51.446;6.792;2023-03-01T00:49:25;-0.50;55.80
46492;DHT22;32206;51.446;6.792;2023-03-01T00:51:53;-0.50;57.50
46492;DHT22;32206;51.446;6.792;2023-03-01T01:00:59;-0.60;64.90
46492;DHT22;32206;51.446;6.792;2023-03-01T01:03:25;-0.60;63.00
46492;DHT22;32206;51.446;6.792;2023-03-01T01:05:54;-0.60;62.40
46492;DHT22;32206;51.446;6.792;2023-03-01T01:15:05;-0.60;65.90
46492;DHT22;32206;51.446;6.792;2023-03-01T01:17:30;-0.70;66.30
46492;DHT22;32206;51.446;6.792;2023-03-01T01:19:56;-0.70;64.60
46492;DHT22;32206;51.446;6.792;2023-03-01T01:22:21;-0.70;62.50
46492;DHT22;32206;51.446;6.792;2023-03-01T01:34:41;-0.70;63.60
46492;DHT22;32206;51.446;6.792;2023-03-01T01:37:06;-0.80;64.80
46492;DHT22;32206;51.446;6.792;2023-03-01T01:39:36;-0.80;67.00
46492;DHT22;32206;51.446;6.792;2023-03-01T01:42:02;-0.80;65.30
46492;DHT22;32206;51.446;6.792;2023-03-01T01:44:28;-0.80;66.30
46492;DHT22;32206;51.446;6.792;2023-03-01T01:53:39;-0.80;68.10
46492;DHT22;32206;51.446;6.792;2023-03-01T01:56:07;-0.80;69.90
46492;DHT22;32206;51.446;6.792;2023-03-01T01:58:34;-0.70;69.70
46492;DHT22;32206;51.446;6.792;2023-03-01T02:01:01;-0.90;72.00
46492;DHT22;32206;51.446;6.792;2023-03-01T02:07:00;-1.00;73.20
46492;DHT22;32206;51.446;6.792;2023-03-01T02:09:27;-1.00;72.10
46492;DHT22;32206;51.446;6.792;2023-03-01T02:15:15;-1.00;69.40
46492;DHT22;32206;51.446;6.792;2023-03-01T02:21:25;-1.00;69.20
46492;DHT22;32206;51.446;6.792;2023-03-01T02:23:56;-1.00;71.60
46492;DHT22;32206;51.446;6.792;2023-03-01T02:26:39;-1.10;73.90
46492;DHT22;32206;51.446;6.792;2023-03-01T02:29:06;-1.10;74.60
46492;DHT22;32206;51.446;6.792;2023-03-01T02:31:32;-1.20;74.50
46492;DHT22;32206;51.446;6.792;2023-03-01T02:34:10;-1.20;78.30
46492;DHT22;32206;51.446;6.792;2023-03-01T02:43:24;-1.20;83.50
46492;DHT22;32206;51.446;6.792;2023-03-01T02:45:54;-1.30;81.70
46492;DHT22;32206;51.446;6.792;2023-03-01T03:01:50;-1.30;77.70
46492;DHT22;32206;51.446;6.792;2023-03-01T03:11:00;-1.40;81.70
46492;DHT22;32206;51.446;6.792;2023-03-01T03:13:26;-1.40;85.60
46492;DHT22;32206;51.446;6.792;2023-03-01T03:15:55;-1.30;87.90
46492;DHT22;32206;51.446;6.792;2023-03-01T03:21:43;-1.30;81.60
46492;DHT22;32206;51.446;6.792;2023-03-01T03:24:09;-1.20;79.40
46492;DHT22;32206;51.446;6.792;2023-03-01T03:26:34;-1.30;77.20
46492;DHT22;32206;51.446;6.792;2023-03-01T03:29:00;-1.30;79.50
46492;DHT22;32206;51.446;6.792;2023-03-01T03:31:26;-1.30;82.60
46492;DHT22;32206;51.446;6.792;2023-03-01T03:33:52;-1.30;85.70
46492;DHT22;32206;51.446;6.792;2023-03-01T03:36:21;-1.20;85.70
46492;DHT22;32206;51.446;6.792;2023-03-01T03:38:47;-1.40;85.80
46492;DHT22;32206;51.446;6.792;2023-03-01T03:41:13;-1.40;87.20
46492;DHT22;32206;51.446;6.792;2023-03-01T03:43:39;-1.40;87.60
46492;DHT22;32206;51.446;6.792;2023-03-01T03:46:06;-1.40;89.20
46492;DHT22;32206;51.446;6.792;2023-03-01T03:51:54;-1.40;90.00
46492;DHT22;32206;51.446;6.792;2023-03-01T03:54:19;-1.40;90.60
46492;DHT22;32206;51.446;6.792;2023-03-01T03:56:45;-1.40;91.10
46492;DHT22;32206;51.446;6.792;2023-03-01T03:59:11;-1.40;91.50
46492;DHT22;32206;51.446;6.792;2023-03-01T04:01:36;-1.40;91.30
46492;DHT22;32206;51.446;6.792;2023-03-01T04:04:02;-1.40;91.90
46492;DHT22;32206;51.446;6.792;2023-03-01T04:06:29;-1.50;92.60
46492;DHT22;32206;51.446;6.792;2023-03-01T04:08:55;-1.50;92.80
46492;DHT22;32206;51.446;6.792;2023-03-01T04:18:09;-1.50;92.70
46492;DHT22;32206;51.446;6.792;2023-03-01T04:20:37;-1.50;92.30
46492;DHT22;32206;51.446;6.792;2023-03-01T04:23:15;-1.50;91.80
46492;DHT22;32206;51.446;6.792;2023-03-01T04:32:25;-1.50;93.00
46492;DHT22;32206;51.446;6.792;2023-03-01T04:41:41;-1.50;91.80
46492;DHT22;32206;51.446;6.792;2023-03-01T04:44:09;-1.50;91.50
46492;DHT22;32206;51.446;6.792;2023-03-01T04:46:35;-1.60;91.30
46492;DHT22;32206;51.446;6.792;2023-03-01T04:49:01;-1.50;91.20
46492;DHT22;32206;51.446;6.792;2023-03-01T04:51:28;-1.60;91.50
46492;DHT22;32206;51.446;6.792;2023-03-01T04:53:53;-1.60;91.00
46492;DHT22;32206;51.446;6.792;2023-03-01T04:56:19;-1.60;90.70
46492;DHT22;32206;51.446;6.792;2023-03-01T04:58:45;-1.50;87.80
46492;DHT22;32206;51.446;6.792;2023-03-01T05:01:14;-1.60;88.50
46492;DHT22;32206;51.446;6.792;2023-03-01T05:03:45;-1.60;89.70
46492;DHT22;32206;51.446;6.792;2023-03-01T05:06:11;-1.60;90.20
46492;DHT22;32206;51.446;6.792;2023-03-01T05:08:40;-1.50;88.70
46492;DHT22;32206;51.446;6.792;2023-03-01T05:11:07;-1.50;90.00
46492;DHT22;32206;51.446;6.792;2023-03-01T05:13:35;-1.50;90.10
46492;DHT22;32206;51.446;6.792;2023-03-01T05:16:02;-1.70;89.90
46492;DHT22;32206;51.446;6.792;2023-03-01T05:18:30;-1.70;91.30
46492;DHT22;32206;51.446;6.792;2023-03-01T05:21:05;-1.70;91.20
46492;DHT22;32206;51.446;6.792;2023-03-01T05:23:32;-1.70;91.40
46492;DHT22;32206;51.446;6.792;2023-03-01T05:26:20;-1.70;90.60
46492;DHT22;32206;51.446;6.792;2023-03-01T05:28:47;-1.70;91.30
46492;DHT22;32206;51.446;6.792;2023-03-01T05:31:13;-1.70;91.20
46492;DHT22;32206;51.446;6.792;2023-03-01T05:33:40;-1.70;91.20
46492;DHT22;32206;51.446;6.792;2023-03-01T05:42:55;-1.70;91.00
46492;DHT22;32206;51.446;6.792;2023-03-01T05:45:22;-1.70;90.80
46492;DHT22;32206;51.446;6.792;2023-03-01T05:47:49;-1.80;91.80
46492;DHT22;32206;51.446;6.792;2023-03-01T05:50:21;-1.70;93.80
46492;DHT22;32206;51.446;6.792;2023-03-01T05:52:56;-1.60;92.70
46492;DHT22;32206;51.446;6.792;2023-03-01T05:55:22;-1.70;91.90
46492;DHT22;32206;51.446;6.792;2023-03-01T06:01:29;-1.70;91.00
46492;DHT22;32206;51.446;6.792;2023-03-01T06:03:55;-1.70;91.10
46492;DHT22;32206;51.446;6.792;2023-03-01T06:06:22;-1.60;90.10
46492;DHT22;32206;51.446;6.792;2023-03-01T06:08:47;-1.70;89.50
46492;DHT22;32206;51.446;6.792;2023-03-01T06:11:13;-1.70;90.40
46492;DHT22;32206;51.446;6.792;2023-03-01T06:13:39;-1.70;89.10
46492;DHT22;32206;51.446;6.792;2023-03-01T06:16:06;-1.80;89.10
46492;DHT22;32206;51.446;6.792;2023-03-01T06:18:33;-1.80;92.50
46492;DHT22;32206;51.446;6.792;2023-03-01T06:24:17;-1.80;90.40
46492;DHT22;32206;51.446;6.792;2023-03-01T06:26:43;-1.80;88.80
46492;DHT22;32206;51.446;6.792;2023-03-01T06:32:30;-1.80;90.60
46492;DHT22;32206;51.446;6.792;2023-03-01T06:34:57;-1.80;90.30
46492;DHT22;32206;51.446;6.792;2023-03-01T06:37:24;-1.80;91.70
46492;DHT22;32206;51.446;6.792;2023-03-01T06:39:50;-1.80;91.50
46492;DHT22;32206;51.446;6.792;2023-03-01T06:48:49;-1.70;92.40
46492;DHT22;32206;51.446;6.792;2023-03-01T06:58:00;-1.50;90.10
46492;DHT22;32206;51.446;6.792;2023-03-01T07:00:26;-1.50;88.40
46492;DHT22;32206;51.446;6.792;2023-03-01T07:02:52;-1.50;87.80
46492;DHT22;32206;51.446;6.792;2023-03-01T07:05:18;-1.40;86.40
46492;DHT22;32206;51.446;6.792;2023-03-01T07:07:43;-1.40;82.00
46492;DHT22;32206;51.446;6.792;2023-03-01T07:10:09;-1.40;78.30
46492;DHT22;32206;51.446;6.792;2023-03-01T07:12:35;-1.30;78.40
46492;DHT22;32206;51.446;6.792;2023-03-01T07:15:01;-1.30;75.90
46492;DHT22;32206;51.446;6.792;2023-03-01T07:17:27;-1.20;76.60
46492;DHT22;32206;51.446;6.792;2023-03-01T07:19:52;-1.20;76.30
46492;DHT22;32206;51.446;6.792;2023-03-01T07:22:18;-1.10;75.40
46492;DHT22;32206;51.446;6.792;2023-03-01T07:24:44;-1.00;75.30
46492;DHT22;32206;51.446;6.792;2023-03-01T07:27:10;-1.00;71.50
46492;DHT22;32206;51.446;6.792;2023-03-01T07:32:58;-0.90;66.70
46492;DHT22;32206;51.446;6.792;2023-03-01T07:35:26;-0.80;66.50
46492;DHT22;32206;51.446;6.792;2023-03-01T07:37:52;-0.80;63.80
46492;DHT22;32206;51.446;6.792;2023-03-01T07:40:18;-0.70;59.50
46492;DHT22;32206;51.446;6.792;2023-03-01T07:42:44;-0.60;56.30
46492;DHT22;32206;51.446;6.792;2023-03-01T07:48:32;-0.60;42.60
46492;DHT22;32206;51.446;6.792;2023-03-01T07:50:59;-0.50;36.10
46492;DHT22;32206;51.446;6.792;2023-03-01T07:53:25;-0.50;34.30
46492;DHT22;32206;51.446;6.792;2023-03-01T07:59:13;-0.30;32.60
46492;DHT22;32206;51.446;6.792;2023-03-01T08:01:39;-0.10;36.60
46492;DHT22;32206;51.446;6.792;2023-03-01T08:04:05;0.00;29.20
46492;DHT22;32206;51.446;6.792;2023-03-01T08:06:34;-0.10;22.10
46492;DHT22;32206;51.446;6.792;2023-03-01T08:09:00;0.00;18.00
46492;DHT22;32206;51.446;6.792;2023-03-01T08:11:25;0.00;14.40
46492;DHT22;32206;51.446;6.792;2023-03-01T08:13:53;0.10;6.40
46492;DHT22;32206;51.446;6.792;2023-03-01T08:16:19;0.20;1.00
46492;DHT22;32206;51.446;6.792;2023-03-01T08:18:44;0.40;1.00
46492;DHT22;32206;51.446;6.792;2023-03-01T08:24:32;0.50;1.00
46492;DHT22;32206;51.446;6.792;2023-03-01T08:26:58;0.50;1.00
46492;DHT22;32206;51.446;6.792;2023-03-01T08:29:23;0.60;1.00
46492;DHT22;32206;51.446;6.792;2023-03-01T08:31:50;0.70;1.00
46492;DHT22;32206;51.446;6.792;2023-03-01T08:34:17;0.80;1.00
46492;DHT22;32206;51.446;6.792;2023-03-01T08:40:06;1.00;1.00
46492;DHT22;32206;51.446;6.792;2023-03-01T08:42:34;1.10;1.00
46492;DHT22;32206;51.446;6.792;2023-03-01T08:48:36;1.50;1.00
46492;DHT22;32206;51.446;6.792;2023-03-01T08:57:46;1.80;1.00
46492;DHT22;32206;51.446;6.792;2023-03-01T09:03:34;2.00;1.00
46492;DHT22;32206;51.446;6.792;2023-03-01T09:06:16;2.10;1.00
46492;DHT22;32206;51.446;6.792;2023-03-01T09:12:04;2.30;1.00
46492;DHT22;32206;51.446;6.792;2023-03-01T09:14:30;2.40;1.00
46492;DHT22;32206;51.446;6.792;2023-03-01T09:16:56;2.70;99.90
46492;DHT22;32206;51.446;6.792;2023-03-01T09:19:22;2.60;99.90
46492;DHT22;32206;51.446;6.792;2023-03-01T09:22:07;2.70;99.90
46492;DHT22;32206;51.446;6.792;2023-03-01T09:24:33;2.80;99.90
46492;DHT22;32206;51.446;6.792;2023-03-01T09:26:58;2.90;99.90
46492;DHT22;32206;51.446;6.792;2023-03-01T09:29:24;3.20;99.90
46492;DHT22;32206;51.446;6.792;2023-03-01T09:31:51;3.10;1.00
46492;DHT22;32206;51.446;6.792;2023-03-01T09:34:20;3.20;1.00
46492;DHT22;32206;51.446;6.792;2023-03-01T09:36:49;3.30;99.90
46492;DHT22;32206;51.446;6.792;2023-03-01T09:39:15;3.50;99.90
46492;DHT22;32206;51.446;6.792;2023-03-01T09:41:50;3.60;99.00
46492;DHT22;32206;51.446;6.792;2023-03-01T09:50:16;3.60;94.80
46492;DHT22;32206;51.446;6.792;2023-03-01T09:55:30;3.70;1.00
46492;DHT22;32206;51.446;6.792;2023-03-01T10:06:51;4.10;1.00
46492;DHT22;32206;51.446;6.792;2023-03-01T10:09:17;4.20;99.90
46492;DHT22;32206;51.446;6.792;2023-03-01T10:11:52;4.30;99.90
46492;DHT22;32206;51.446;6.792;2023-03-01T10:14:35;4.50;1.00
46492;DHT22;32206;51.446;6.792;2023-03-01T10:17:18;4.60;99.90
46492;DHT22;32206;51.446;6.792;2023-03-01T10:19:46;4.70;1.00
46492;DHT22;32206;51.446;6.792;2023-03-01T10:22:24;4.70;99.90
46492;DHT22;32206;51.446;6.792;2023-03-01T10:24:54;4.80;99.90
46492;DHT22;32206;51.446;6.792;2023-03-01T10:27:35;5.40;42.40
46492;DHT22;32206;51.446;6.792;2023-03-01T10:32:36;5.20;1.00
46492;DHT22;32206;51.446;6.792;2023-03-01T10:35:24;5.10;1.00
46492;DHT22;32206;51.446;6.792;2023-03-01T10:38:24;5.10;1.00
46492;DHT22;32206;51.446;6.792;2023-03-01T10:41:05;5.20;99.90
46492;DHT22;32206;51.446;6.792;2023-03-01T10:43:48;5.50;99.90
46492;DHT22;32206;51.446;6.792;2023-03-01T10:55:43;5.90;98.00
46492;DHT22;32206;51.446;6.792;2023-03-01T10:58:19;6.20;1.00
46492;DHT22;32206;51.446;6.792;2023-03-01T11:06:34;7.00;99.90
46492;DHT22;32206;51.446;6.792;2023-03-01T11:09:19;7.30;99.90
46492;DHT22;32206;51.446;6.792;2023-03-01T11:11:45;7.50;99.90
46492;DHT22;32206;51.446;6.792;2023-03-01T11:14:20;7.60;99.90
46492;DHT22;32206;51.446;6.792;2023-03-01T11:17:15;7.70;99.90
46492;DHT22;32206;51.446;6.792;2023-03-01T11:19:41;7.80;99.90
46492;DHT22;32206;51.446;6.792;2023-03-01T11:24:45;8.30;99.90
46492;DHT22;32206;51.446;6.792;2023-03-01T11:27:32;8.50;99.90
46492;DHT22;32206;51.446;6.792;2023-03-01T11:30:41;8.60;99.90
46492;DHT22;32206;51.446;6.792;2023-03-01T11:35:50;9.20;99.90
46492;DHT22;32206;51.446;6.792;2023-03-01T11:45:12;10.00;98.50
46492;DHT22;32206;51.446;6.792;2023-03-01T11:48:42;10.10;70.70
46492;DHT22;32206;51.446;6.792;2023-03-01T11:50:48;10.30;56.20
46492;DHT22;32206;51.446;6.792;2023-03-01T11:56:01;10.50;30.50
46492;DHT22;32206;51.446;6.792;2023-03-01T12:12:26;11.20;1.00
46492;DHT22;32206;51.446;6.792;2023-03-01T12:22:37;12.10;1.00
46492;DHT22;32206;51.446;6.792;2023-03-01T12:37:27;13.40;1.00
46492;DHT22;32206;51.446;6.792;2023-03-01T12:51:30;14.50;1.00
46492;DHT22;32206;51.446;6.792;2023-03-01T12:53:59;14.50;1.00
46492;DHT22;32206;51.446;6.792;2023-03-01T13:05:45;15.10;1.00
46492;DHT22;32206;51.446;6.792;2023-03-01T13:08:24;15.70;1.00
46492;DHT22;32206;51.446;6.792;2023-03-01T13:11:00;15.80;1.00
46492;DHT22;32206;51.446;6.792;2023-03-01T13:13:28;16.30;1.00
46492;DHT22;32206;51.446;6.792;2023-03-01T13:15:54;16.60;1.00
46492;DHT22;32206;51.446;6.792;2023-03-01T13:32:02;16.90;1.00
46492;DHT22;32206;51.446;6.792;2023-03-01T13:34:44;16.40;1.00
46492;DHT22;32206;51.446;6.792;2023-03-01T13:37:18;16.00;1.00
46492;DHT22;32206;51.446;6.792;2023-03-01T13:39:44;16.10;1.00
46492;DHT22;32206;51.446;6.792;2023-03-01T13:42:46;16.00;1.00
46492;DHT22;32206;51.446;6.792;2023-03-01T13:45:36;16.10;1.00
46492;DHT22;32206;51.446;6.792;2023-03-01T13:48:09;16.20;1.00
46492;DHT22;32206;51.446;6.792;2023-03-01T13:50:45;17.00;1.00
46492;DHT22;32206;51.446;6.792;2023-03-01T13:53:17;17.40;1.00
46492;DHT22;32206;51.446;6.792;2023-03-01T13:55:55;18.20;1.00
46492;DHT22;32206;51.446;6.792;2023-03-01T13:58:25;18.80;1.00
46492;DHT22;32206;51.446;6.792;2023-03-01T14:01:31;19.50;1.00
46492;DHT22;32206;51.446;6.792;2023-03-01T14:03:58;19.90;1.00
46492;DHT22;32206;51.446;6.792;2023-03-01T14:06:28;19.90;1.00
46492;DHT22;32206;51.446;6.792;2023-03-01T14:09:18;20.10;1.00
46492;DHT22;32206;51.446;6.792;2023-03-01T14:15:35;19.70;1.00
46492;DHT22;32206;51.446;6.792;2023-03-01T14:18:08;19.90;1.00
46492;DHT22;32206;51.446;6.792;2023-03-01T14:20:41;19.70;1.00
46492;DHT22;32206;51.446;6.792;2023-03-01T14:23:13;20.40;1.00
46492;DHT22;32206;51.446;6.792;2023-03-01T14:25:48;20.70;1.00
46492;DHT22;32206;51.446;6.792;2023-03-01T14:28:31;20.70;1.00
46492;DHT22;32206;51.446;6.792;2023-03-01T14:31:00;20.60;1.00
46492;DHT22;32206;51.446;6.792;2023-03-01T14:33:29;21.20;1.00
46492;DHT22;32206;51.446;6.792;2023-03-01T14:38:32;21.40;1.00
46492;DHT22;32206;51.446;6.792;2023-03-01T14:41:00;21.90;1.00
46492;DHT22;32206;51.446;6.792;2023-03-01T14:43:29;22.20;1.00
46492;DHT22;32206;51.446;6.792;2023-03-01T14:45:55;22.40;1.00
46492;DHT22;32206;51.446;6.792;2023-03-01T14:48:21;21.90;1.00
46492;DHT22;32206;51.446;6.792;2023-03-01T14:50:47;21.70;1.00
46492;DHT22;32206;51.446;6.792;2023-03-01T14:53:22;21.20;1.00
46492;DHT22;32206;51.446;6.792;2023-03-01T14:55:53;20.30;1.00
46492;DHT22;32206;51.446;6.792;2023-03-01T14:58:22;19.80;1.00
46492;DHT22;32206;51.446;6.792;2023-03-01T15:01:02;19.10;1.00
46492;DHT22;32206;51.446;6.792;2023-03-01T15:06:03;18.50;1.00
46492;DHT22;32206;51.446;6.792;2023-03-01T15:08:31;18.40;1.00
46492;DHT22;32206;51.446;6.792;2023-03-01T15:13:43;18.20;1.00
46492;DHT22;32206;51.446;6.792;2023-03-01T15:16:15;18.10;1.00
46492;DHT22;32206;51.446;6.792;2023-03-01T15:18:47;18.70;1.00
46492;DHT22;32206;51.446;6.792;2023-03-01T15:21:22;19.70;1.00
46492;DHT22;32206;51.446;6.792;2023-03-01T15:23:50;21.20;1.00
46492;DHT22;32206;51.446;6.792;2023-03-01T15:26:23;21.20;1.00
46492;DHT22;32206;51.446;6.792;2023-03-01T15:28:51;21.70;1.00
46492;DHT22;32206;51.446;6.792;2023-03-01T15:31:23;22.70;1.00
46492;DHT22;32206;51.446;6.792;2023-03-01T15:33:50;23.90;1.00
46492;DHT22;32206;51.446;6.792;2023-03-01T15:36:45;24.00;1.00
46492;DHT22;32206;51.446;6.792;2023-03-01T15:39:42;24.30;1.00
46492;DHT22;32206;51.446;6.792;2023-03-01T15:45:11;23.50;1.00
46492;DHT22;32206;51.446;6.792;2023-03-01T15:47:50;21.80;1.00
46492;DHT22;32206;51.446;6.792;2023-03-01T15:50:42;20.90;1.00
46492;DHT22;32206;51.446;6.792;2023-03-01T15:53:13;22.50;1.00
46492;DHT22;32206;51.446;6.792;2023-03-01T15:55:40;23.90;1.00
46492;DHT22;32206;51.446;6.792;2023-03-01T16:01:28;23.30;1.00
46492;DHT22;32206;51.446;6.792;2023-03-01T16:03:54;24.00;1.00
46492;DHT22;32206;51.446;6.792;2023-03-01T16:06:20;24.70;1.00
46492;DHT22;32206;51.446;6.792;2023-03-01T16:08:46;25.20;1.00
46492;DHT22;32206;51.446;6.792;2023-03-01T16:11:18;25.70;1.00
46492;DHT22;32206;51.446;6.792;2023-03-01T16:13:44;24.80;1.00
46492;DHT22;32206;51.446;6.792;2023-03-01T16:16:11;24.40;1.00
46492;DHT22;32206;51.446;6.792;2023-03-01T16:18:45;24.30;1.00
46492;DHT22;32206;51.446;6.792;2023-03-01T16:21:18;24.50;1.00
46492;DHT22;32206;51.446;6.792;2023-03-01T16:23:44;25.10;1.00
46492;DHT22;32206;51.446;6.792;2023-03-01T16:26:10;25.10;1.00
46492;DHT22;32206;51.446;6.792;2023-03-01T16:28:36;24.10;1.00
46492;DHT22;32206;51.446;6.792;2023-03-01T16:31:02;24.00;1.00
46492;DHT22;32206;51.446;6.792;2023-03-01T16:33:27;23.70;1.00
46492;DHT22;32206;51.446;6.792;2023-03-01T16:35:53;23.30;1.00
46492;DHT22;32206;51.446;6.792;2023-03-01T16:38:19;22.40;1.00
46492;DHT22;32206;51.446;6.792;2023-03-01T16:40:49;20.80;99.90
46492;DHT22;32206;51.446;6.792;2023-03-01T16:43:19;19.10;1.00
46492;DHT22;32206;51.446;6.792;2023-03-01T16:45:45;17.90;1.00
46492;DHT22;32206;51.446;6.792;2023-03-01T16:48:12;16.30;1.00
46492;DHT22;32206;51.446;6.792;2023-03-01T16:53:59;14.10;1.00
46492;DHT22;32206;51.446;6.792;2023-03-01T16:56:25;13.50;1.00
46492;DHT22;32206;51.446;6.792;2023-03-01T17:02:13;11.80;1.00
46492;DHT22;32206;51.446;6.792;2023-03-01T17:04:40;10.60;1.00
46492;DHT22;32206;51.446;6.792;2023-03-01T17:07:06;9.90;1.00
46492;DHT22;32206;51.446;6.792;2023-03-01T17:09:36;9.80;1.00
46492;DHT22;32206;51.446;6.792;2023-03-01T17:12:03;9.10;1.00
46492;DHT22;32206;51.446;6.792;2023-03-01T17:14:29;8.80;1.00
46492;DHT22;32206;51.446;6.792;2023-03-01T17:16:55;8.60;1.00
46492;DHT22;32206;51.446;6.792;2023-03-01T17:19:20;8.40;1.00
46492;DHT22;32206;51.446;6.792;2023-03-01T17:21:46;8.10;1.00
46492;DHT22;32206;51.446;6.792;2023-03-01T17:24:12;8.00;1.00
46492;DHT22;32206;51.446;6.792;2023-03-01T17:26:38;7.70;1.00
46492;DHT22;32206;51.446;6.792;2023-03-01T17:29:04;7.60;1.00
46492;DHT22;32206;51.446;6.792;2023-03-01T17:31:31;7.40;1.00
46492;DHT22;32206;51.446;6.792;2023-03-01T17:33:57;7.30;1.00
46492;DHT22;32206;51.446;6.792;2023-03-01T17:36:23;7.20;1.00
46492;DHT22;32206;51.446;6.792;2023-03-01T17:42:11;7.00;1.00
46492;DHT22;32206;51.446;6.792;2023-03-01T17:44:36;6.90;1.00
46492;DHT22;32206;51.446;6.792;2023-03-01T17:47:03;7.00;12.50
46492;DHT22;32206;51.446;6.792;2023-03-01T17:49:29;6.70;30.70
46492;DHT22;32206;51.446;6.792;2023-03-01T17:51:54;6.60;52.50
46492;DHT22;32206;51.446;6.792;2023-03-01T17:54:20;6.50;73.70
46492;DHT22;32206;51.446;6.792;2023-03-01T17:56:46;6.40;96.60
46492;DHT22;32206;51.446;6.792;2023-03-01T18:02:33;6.40;96.60
46492;DHT22;32206;51.446;6.792;2023-03-01T18:11:43;6.20;99.90
46492;DHT22;32206;51.446;6.792;2023-03-01T18:14:09;6.00;99.90
46492;DHT22;32206;51.446;6.792;2023-03-01T18:16:35;5.90;99.90
46492;DHT22;32206;51.446;6.792;2023-03-01T18:19:03;5.90;99.90
46492;DHT22;32206;51.446;6.792;2023-03-01T18:21:29;6.00;99.90
46492;DHT22;32206;51.446;6.792;2023-03-01T18:23:56;5.80;99.90
46492;DHT22;32206;51.446;6.792;2023-03-01T18:26:22;5.70;99.90
46492;DHT22;32206;51.446;6.792;2023-03-01T18:32:29;5.60;99.90
46492;DHT22;32206;51.446;6.792;2023-03-01T18:34:55;5.50;99.90
46492;DHT22;32206;51.446;6.792;2023-03-01T18:37:20;5.50;99.90
46492;DHT22;32206;51.446;6.792;2023-03-01T18:39:52;5.50;99.90
46492;DHT22;32206;51.446;6.792;2023-03-01T18:42:18;5.50;99.90
46492;DHT22;32206;51.446;6.792;2023-03-01T18:44:47;5.50;99.90
46492;DHT22;32206;51.446;6.792;2023-03-01T18:47:14;5.30;99.90
46492;DHT22;32206;51.446;6.792;2023-03-01T18:49:39;5.30;1.00
46492;DHT22;32206;51.446;6.792;2023-03-01T18:52:05;5.20;1.00
46492;DHT22;32206;51.446;6.792;2023-03-01T18:54:31;5.30;1.00
46492;DHT22;32206;51.446;6.792;2023-03-01T18:56:57;5.30;1.00
46492;DHT22;32206;51.446;6.792;2023-03-01T18:59:23;5.20;1.00
46492;DHT22;32206;51.446;6.792;2023-03-01T19:01:48;5.20;1.00
46492;DHT22;32206;51.446;6.792;2023-03-01T19:04:14;5.10;19.00
46492;DHT22;32206;51.446;6.792;2023-03-01T19:06:40;5.30;1.00
46492;DHT22;32206;51.446;6.792;2023-03-01T19:09:07;5.00;1.00
46492;DHT22;32206;51.446;6.792;2023-03-01T19:11:33;5.00;39.90
46492;DHT22;32206;51.446;6.792;2023-03-01T19:14:00;4.90;99.90
46492;DHT22;32206;51.446;6.792;2023-03-01T19:16:29;5.10;99.90
46492;DHT22;32206;51.446;6.792;2023-03-01T19:18:57;5.00;99.90
46492;DHT22;32206;51.446;6.792;2023-03-01T19:21:25;4.80;99.90
46492;DHT22;32206;51.446;6.792;2023-03-01T19:23:51;5.10;99.90
46492;DHT22;32206;51.446;6.792;2023-03-01T19:26:20;4.80;99.90
46492;DHT22;32206;51.446;6.792;2023-03-01T19:35:34;4.60;1.00
46492;DHT22;32206;51.446;6.792;2023-03-01T19:41:22;4.50;99.90
46492;DHT22;32206;51.446;6.792;2023-03-01T19:43:47;4.50;99.90
46492;DHT22;32206;51.446;6.792;2023-03-01T19:46:13;4.50;99.90
46492;DHT22;32206;51.446;6.792;2023-03-01T19:48:40;4.50;99.90
46492;DHT22;32206;51.446;6.792;2023-03-01T19:51:06;4.60;99.90
46492;DHT22;32206;51.446;6.792;2023-03-01T19:53:33;4.40;99.90
46492;DHT22;32206;51.446;6.792;2023-03-01T19:56:00;4.40;1.00
46492;DHT22;32206;51.446;6.792;2023-03-01T19:58:27;4.40;99.90
46492;DHT22;32206;51.446;6.792;2023-03-01T20:00:53;4.40;99.90
46492;DHT22;32206;51.446;6.792;2023-03-01T20:03:34;4.70;99.90
46492;DHT22;32206;51.446;6.792;2023-03-01T20:06:08;4.30;99.90
46492;DHT22;32206;51.446;6.792;2023-03-01T20:08:34;4.30;1.00
46492;DHT22;32206;51.446;6.792;2023-03-01T20:11:08;4.30;1.00
46492;DHT22;32206;51.446;6.792;2023-03-01T20:13:35;4.30;1.50
46492;DHT22;32206;51.446;6.792;2023-03-01T20:16:01;4.40;1.00
46492;DHT22;32206;51.446;6.792;2023-03-01T20:18:27;4.30;1.00
46492;DHT22;32206;51.446;6.792;2023-03-01T20:20:53;4.30;1.00
46492;DHT22;32206;51.446;6.792;2023-03-01T20:26:32;4.20;99.90
46492;DHT22;32206;51.446;6.792;2023-03-01T20:28:57;4.20;99.90
46492;DHT22;32206;51.446;6.792;2023-03-01T20:34:45;4.10;99.90
46492;DHT22;32206;51.446;6.792;2023-03-01T20:43:53;4.10;1.00
46492;DHT22;32206;51.446;6.792;2023-03-01T20:49:42;4.00;1.00
46492;DHT22;32206;51.446;6.792;2023-03-01T20:58:54;3.90;99.90
46492;DHT22;32206;51.446;6.792;2023-03-01T21:01:21;3.90;99.90
46492;DHT22;32206;51.446;6.792;2023-03-01T21:03:50;3.90;99.90
46492;DHT22;32206;51.446;6.792;2023-03-01T21:06:16;3.90;1.00
46492;DHT22;32206;51.446;6.792;2023-03-01T21:08:42;3.90;1.00
46492;DHT22;32206;51.446;6.792;2023-03-01T21:11:08;3.80;99.90
46492;DHT22;32206;51.446;6.792;2023-03-01T21:13:34;3.80;99.90
46492;DHT22;32206;51.446;6.792;2023-03-01T21:16:08;3.80;1.00
46492;DHT22;32206;51.446;6.792;2023-03-01T21:18:37;3.70;1.00
46492;DHT22;32206;51.446;6.792;2023-03-01T21:21:06;3.70;99.90
46492;DHT22;32206;51.446;6.792;2023-03-01T21:23:34;3.80;99.90
46492;DHT22;32206;51.446;6.792;2023-03-01T21:28:36;3.70;1.00
46492;DHT22;32206;51.446;6.792;2023-03-01T21:34:35;3.70;1.00
46492;DHT22;32206;51.446;6.792;2023-03-01T21:37:01;3.90;1.00
46492;DHT22;32206;51.446;6.792;2023-03-01T21:42:49;3.60;99.90
46492;DHT22;32206;51.446;6.792;2023-03-01T21:51:58;3.50;99.90
46492;DHT22;32206;51.446;6.792;2023-03-01T21:57:46;3.40;1.00
46492;DHT22;32206;51.446;6.792;2023-03-01T22:04:00;3.30;1.00
46492;DHT22;32206;51.446;6.792;2023-03-01T22:06:28;3.40;99.90
46492;DHT22;32206;51.446;6.792;2023-03-01T22:12:20;3.40;90.50
46492;DHT22;32206;51.446;6.792;2023-03-01T22:14:45;3.30;99.90
46492;DHT22;32206;51.446;6.792;2023-03-01T22:17:11;3.30;99.90
46492;DHT22;32206;51.446;6.792;2023-03-01T22:19:36;3.20;99.90
46492;DHT22;32206;51.446;6.792;2023-03-01T22:22:02;3.20;1.00
46492;DHT22;32206;51.446;6.792;2023-03-01T22:24:28;3.20;99.90
46492;DHT22;32206;51.446;6.792;2023-03-01T22:26:54;3.30;1.00
46492;DHT22;32206;51.446;6.792;2023-03-01T22:29:22;3.20;1.00
46492;DHT22;32206;51.446;6.792;2023-03-01T22:31:51;3.20;99.90
46492;DHT22;32206;51.446;6.792;2023-03-01T22:34:17;3.20;1.00
46492;DHT22;32206;51.446;6.792;2023-03-01T22:36:43;3.20;1.00
46492;DHT22;32206;51.446;6.792;2023-03-01T22:42:40;3.10;99.90